首页
METAR-TAF:

METAR-TAF

机场 :

天津滨海国际机场

天津, 中华人民共和国

纬度: 39-11N, 经度: 117-21E, 海拔: 3米

当前天气观测

该预报发布于29分钟前的02:00 UTC
风速8节,风向
温度 25°C
湿度 89%
气压 1008 hPa
能见度10公里或以上
多云层高于1100英尺
阴天层高于4000英尺
小雨

METAR: ZBTJ 190200Z 10004MPS 9999 -RA BKN011 OVC040 25/23 Q1008 NOSIG

时间: 10:29 (02:29 UTC)

预报

该预报发布于7小时和1分钟前的19:28 UTC
预报有效从19日的 00点(UTC)到 19日的 24点(UTC)
风速10节,风向东转东北
能見度: 3000
多云层高于2500英尺
小雨, 轻雾
短暂存在
从 19日的 00点(UTC)到 19日的 04点(UTC)
短暂存在
从 19日的 10点(UTC)到 19日的 15点(UTC)
能見度: 2000
大雨

TAF: ZBTJ 181928Z 1900/1924 06005MPS 3000 -RA BR BKN025 TX29/1906Z TN23/1921Z TEMPO 1900/1904 RA TEMPO 1910/1915 2000 +RA

超过4000个机场的气象观测和天气预报(METAR&TAF报告)。

可查询的气象台以黄色和红色小点在地图上表示。

将鼠标移到小点上方,可查看气象台名称。

然后点击查看天气观测和预报。

如需切换地图:点击带黑十字的绿色按钮放大地图;点击带横线的绿色按钮缩小地图;或者点击绿色箭头查看邻近地区的地图。


METAR-TAF: